createdAt,value
2023-03-01T00:01:43.456Z,2.74
2023-03-01T00:04:11.717Z,2.88
2023-03-01T00:06:39.890Z,2.90
2023-03-01T00:09:08.062Z,2.31
2023-03-01T00:11:36.337Z,1.58
2023-03-01T00:14:07.890Z,0.98
2023-03-01T00:16:40.830Z,0.46
2023-03-01T00:19:14.268Z,-0.01
2023-03-01T00:21:42.543Z,-0.42
2023-03-01T00:24:12.736Z,-0.75
2023-03-01T00:26:41.240Z,-1.07
2023-03-01T00:29:09.414Z,-1.11
2023-03-01T00:31:37.589Z,0.27
2023-03-01T00:34:07.528Z,2.03
2023-03-01T00:36:37.979Z,3.23
2023-03-01T00:39:11.221Z,3.76
2023-03-01T00:41:39.904Z,4.17
2023-03-01T00:44:08.280Z,4.52
2023-03-01T00:46:37.725Z,3.75
2023-03-01T00:49:06.687Z,2.78
2023-03-01T00:51:34.868Z,1.99
2023-03-01T00:54:03.883Z,1.34
2023-03-01T00:56:32.728Z,0.77
2023-03-01T00:59:02.241Z,0.28
2023-03-01T01:01:31.692Z,-0.18
2023-03-01T01:04:06.055Z,-0.57
2023-03-01T01:06:37.165Z,-0.94
2023-03-01T01:09:07.739Z,-1.29
2023-03-01T01:11:37.547Z,-1.59
2023-03-01T01:14:05.916Z,-1.88
2023-03-01T01:16:34.536Z,-2.11
2023-03-01T01:19:03.787Z,-2.00
2023-03-01T01:21:32.468Z,-0.64
2023-03-01T01:24:00.848Z,0.77
2023-03-01T01:26:30.990Z,1.79
2023-03-01T01:29:00.774Z,2.62
2023-03-01T01:31:29.841Z,3.30
2023-03-01T01:34:00.290Z,4.09
2023-03-01T01:36:29.147Z,4.51
2023-03-01T01:38:58.080Z,3.67
2023-03-01T01:41:27.578Z,2.65
2023-03-01T01:44:17.253Z,1.82
2023-03-01T01:46:49.456Z,1.00
2023-03-01T01:49:37.660Z,0.39
2023-03-01T01:52:08.617Z,-0.16
2023-03-01T01:55:16.198Z,-0.61
2023-03-01T01:57:50.305Z,-1.12
2023-03-01T02:00:30.255Z,-1.47
2023-03-01T02:03:09.088Z,-1.80
2023-03-01T02:05:55.384Z,-2.13
2023-03-01T02:08:27.741Z,-1.99
2023-03-01T02:10:57.023Z,-0.14
2023-03-01T02:13:25.218Z,1.37
2023-03-01T02:15:53.600Z,2.32
2023-03-01T02:18:23.602Z,3.05
2023-03-01T02:21:02.583Z,3.65
2023-03-01T02:23:31.114Z,3.83
2023-03-01T02:26:15.072Z,2.98
2023-03-01T02:28:44.762Z,1.94
2023-03-01T02:31:35.694Z,1.17
2023-03-01T02:34:07.726Z,0.46
2023-03-01T02:36:38.557Z,-0.13
2023-03-01T02:39:08.481Z,-0.59
2023-03-01T02:41:39.022Z,-1.05
2023-03-01T02:44:07.481Z,-1.44
2023-03-01T02:46:44.875Z,-1.78
2023-03-01T02:49:23.489Z,-2.10
2023-03-01T02:52:44.714Z,-2.41
2023-03-01T02:55:15.816Z,-2.77
2023-03-01T02:57:46.592Z,-2.68
2023-03-01T03:00:20.699Z,-1.11
2023-03-01T03:02:53.669Z,0.48
2023-03-01T03:05:27.474Z,1.73
2023-03-01T03:07:59.377Z,2.66
2023-03-01T03:10:34.163Z,3.44
2023-03-01T03:13:08.276Z,3.80
2023-03-01T03:15:37.164Z,2.95
2023-03-01T03:18:10.281Z,1.96
2023-03-01T03:20:39.038Z,1.14
2023-03-01T03:23:07.413Z,0.49
2023-03-01T03:25:38.974Z,-0.09
2023-03-01T03:28:11.705Z,-0.58
2023-03-01T03:30:41.696Z,-1.04
2023-03-01T03:33:13.472Z,-1.42
2023-03-01T03:35:45.395Z,-1.79
2023-03-01T03:38:18.971Z,-2.12
2023-03-01T03:40:53.880Z,-2.43
2023-03-01T03:43:24.028Z,-2.74
2023-03-01T03:45:52.654Z,-2.73
2023-03-01T03:48:21.598Z,-1.26
2023-03-01T03:50:52.295Z,0.22
2023-03-01T03:53:21.430Z,1.29
2023-03-01T03:55:52.865Z,1.96
2023-03-01T03:58:23.505Z,2.47
2023-03-01T04:00:54.342Z,2.78
2023-03-01T04:03:23.216Z,2.06
2023-03-01T04:05:52.011Z,1.21
2023-03-01T04:08:25.098Z,0.51
2023-03-01T04:10:58.084Z,-0.09
2023-03-01T04:13:26.457Z,-0.60
2023-03-01T04:15:55.449Z,-1.06
2023-03-01T04:18:26.232Z,-1.47
2023-03-01T04:20:56.583Z,-1.85
2023-03-01T04:23:25.170Z,-2.19
2023-03-01T04:25:56.335Z,-2.51
2023-03-01T04:28:37.417Z,-2.79
2023-03-01T04:31:16.841Z,-3.06
2023-03-01T04:33:52.541Z,-3.32
2023-03-01T04:36:23.766Z,-3.51
2023-03-01T04:38:53.160Z,-3.38
2023-03-01T04:41:24.462Z,-1.85
2023-03-01T04:43:52.762Z,-0.21
2023-03-01T04:46:22.647Z,0.87
2023-03-01T04:48:51.154Z,1.72
2023-03-01T04:51:19.715Z,2.42
2023-03-01T04:53:48.533Z,3.05
2023-03-01T04:56:18.929Z,3.34
2023-03-01T04:58:47.623Z,2.51
2023-03-01T05:01:20.940Z,1.53
2023-03-01T05:03:51.670Z,0.72
2023-03-01T05:06:20.435Z,0.06
2023-03-01T05:08:49.024Z,-0.53
2023-03-01T05:11:17.201Z,-1.00
2023-03-01T05:13:45.468Z,-1.42
2023-03-01T05:16:13.748Z,-1.82
2023-03-01T05:18:42.222Z,-2.19
2023-03-01T05:21:12.980Z,-2.54
2023-03-01T05:23:41.948Z,-2.86
2023-03-01T05:26:25.835Z,-3.15
2023-03-01T05:29:00.409Z,-3.43
2023-03-01T05:31:29.180Z,-3.27
2023-03-01T05:33:57.618Z,-1.68
2023-03-01T05:36:25.851Z,-0.20
2023-03-01T05:38:54.019Z,0.85
2023-03-01T05:41:22.394Z,1.69
2023-03-01T05:43:50.692Z,2.42
2023-03-01T05:46:18.981Z,3.03
2023-03-01T05:48:48.239Z,3.32
2023-03-01T05:51:16.520Z,2.53
2023-03-01T05:53:44.722Z,1.57
2023-03-01T05:56:12.860Z,0.77
2023-03-01T05:58:40.937Z,0.11
2023-03-01T06:01:13.586Z,-0.46
2023-03-01T06:03:42.299Z,-0.97
2023-03-01T06:06:10.474Z,-1.40
2023-03-01T06:08:38.741Z,-1.79
2023-03-01T06:11:08.243Z,-2.15
2023-03-01T06:13:37.036Z,-2.50
2023-03-01T06:16:07.459Z,-2.81
2023-03-01T06:18:35.768Z,-3.05
2023-03-01T06:21:04.625Z,-2.98
2023-03-01T06:23:33.129Z,-1.44
2023-03-01T06:26:02.095Z,0.24
2023-03-01T06:28:30.264Z,1.34
2023-03-01T06:30:58.482Z,2.15
2023-03-01T06:33:26.710Z,2.88
2023-03-01T06:35:58.190Z,3.58
2023-03-01T06:38:26.332Z,3.97
2023-03-01T06:40:56.325Z,3.23
2023-03-01T06:43:25.235Z,2.29
2023-03-01T06:45:53.512Z,1.56
2023-03-01T06:48:21.584Z,1.01
2023-03-01T06:50:49.849Z,0.54
2023-03-01T06:53:18.142Z,0.10
2023-03-01T06:55:46.309Z,-0.29
2023-03-01T06:58:14.623Z,-0.65
2023-03-01T07:00:44.184Z,-0.69
2023-03-01T07:03:12.385Z,0.79
2023-03-01T07:05:41.443Z,2.43
2023-03-01T07:08:09.615Z,3.60
2023-03-01T07:10:37.787Z,4.46
2023-03-01T07:13:08.033Z,4.85
2023-03-01T07:15:36.186Z,4.03
2023-03-01T07:18:04.353Z,3.10
2023-03-01T07:20:32.433Z,2.39
2023-03-01T07:23:00.703Z,1.85
2023-03-01T07:25:28.971Z,1.40
2023-03-01T07:27:57.349Z,1.01
2023-03-01T07:30:28.530Z,0.64
2023-03-01T07:32:58.530Z,0.32
2023-03-01T07:35:28.202Z,0.05
2023-03-01T07:37:56.800Z,0.15
2023-03-01T07:40:24.871Z,1.70
2023-03-01T07:42:59.924Z,3.28
2023-03-01T07:45:28.818Z,4.41
2023-03-01T07:47:57.164Z,5.19
2023-03-01T07:50:25.645Z,5.83
2023-03-01T07:52:54.020Z,6.14
2023-03-01T07:55:22.199Z,5.37
2023-03-01T07:57:50.355Z,4.47
2023-03-01T08:00:19.046Z,3.69
2023-03-01T08:02:47.324Z,3.10
2023-03-01T08:05:15.906Z,2.64
2023-03-01T08:07:43.978Z,2.27
2023-03-01T08:10:12.574Z,1.94
2023-03-01T08:12:41.037Z,1.62
2023-03-01T08:15:09.938Z,1.34
2023-03-01T08:17:38.306Z,1.43
2023-03-01T08:20:08.287Z,2.88
2023-03-01T08:22:36.384Z,4.28
2023-03-01T08:25:05.272Z,5.26
2023-03-01T08:27:33.445Z,6.05
2023-03-01T08:30:01.728Z,6.78
2023-03-01T08:32:30.018Z,7.14
2023-03-01T08:34:58.474Z,6.48
2023-03-01T08:37:26.860Z,5.68
2023-03-01T08:39:56.147Z,5.02
2023-03-01T08:42:24.430Z,4.53
2023-03-01T08:44:52.598Z,4.13
2023-03-01T08:47:20.786Z,3.80
2023-03-01T08:49:50.993Z,3.54
2023-03-01T08:52:19.162Z,3.34
2023-03-01T08:54:49.060Z,3.18
2023-03-01T08:57:17.250Z,3.07
2023-03-01T08:59:45.426Z,3.01
2023-03-01T09:02:16.680Z,2.96
2023-03-01T09:04:45.556Z,2.96
2023-03-01T09:07:13.655Z,3.02
2023-03-01T09:09:42.108Z,3.11
2023-03-01T09:12:10.792Z,3.19
2023-03-01T09:14:39.971Z,3.26
2023-03-01T09:17:08.237Z,3.36
2023-03-01T09:19:36.515Z,3.48
2023-03-01T09:22:05.850Z,3.62
2023-03-01T09:24:34.314Z,3.73
2023-03-01T09:27:02.584Z,3.81
2023-03-01T09:29:30.867Z,3.90
2023-03-01T09:31:59.514Z,3.97
2023-03-01T09:34:27.842Z,4.04
2023-03-01T09:36:56.096Z,4.10
2023-03-01T09:39:24.780Z,4.17
2023-03-01T09:42:05.730Z,4.29
2023-03-01T09:44:40.078Z,4.46
2023-03-01T09:47:17.973Z,4.63
2023-03-01T09:49:53.800Z,4.76
2023-03-01T09:52:28.043Z,4.90
2023-03-01T09:54:59.494Z,5.07
2023-03-01T09:57:48.850Z,5.24
2023-03-01T10:00:29.215Z,5.44
2023-03-01T10:03:11.309Z,5.65
2023-03-01T10:06:05.487Z,5.87
2023-03-01T10:08:42.774Z,6.08
2023-03-01T10:11:38.697Z,6.26
2023-03-01T10:14:25.310Z,6.47
2023-03-01T10:17:06.281Z,6.69
2023-03-01T10:19:37.417Z,6.94
2023-03-01T10:22:15.512Z,7.17
2023-03-01T10:24:44.411Z,7.37
2023-03-01T10:27:18.524Z,7.56
2023-03-01T10:30:12.499Z,7.83
2023-03-01T10:32:41.191Z,8.11
2023-03-01T10:35:20.537Z,8.32
2023-03-01T10:37:59.753Z,8.52
2023-03-01T10:40:28.027Z,8.70
2023-03-01T10:42:59.604Z,8.87
2023-03-01T10:45:30.651Z,9.07
2023-03-01T10:48:20.615Z,9.29
2023-03-01T10:50:51.619Z,9.54
2023-03-01T10:53:30.217Z,9.64
2023-03-01T10:56:16.730Z,9.71
2023-03-01T10:59:07.053Z,9.89
2023-03-01T11:01:36.951Z,9.91
2023-03-01T11:04:08.211Z,9.97
2023-03-01T11:06:38.434Z,9.98
2023-03-01T11:09:21.549Z,10.07
2023-03-01T11:11:57.710Z,10.20
2023-03-01T11:14:28.602Z,10.33
2023-03-01T11:17:01.842Z,10.52
2023-03-01T11:19:30.110Z,10.74
2023-03-01T11:22:22.492Z,10.87
2023-03-01T11:25:08.565Z,10.98
2023-03-01T11:27:42.260Z,11.21
2023-03-01T11:30:22.816Z,11.46
2023-03-01T11:33:09.485Z,11.69
2023-03-01T11:35:44.442Z,11.93
2023-03-01T11:38:28.834Z,12.07
2023-03-01T11:41:16.867Z,12.14
2023-03-01T11:44:02.546Z,12.30
2023-03-01T11:46:33.897Z,12.45
2023-03-01T11:49:11.550Z,12.54
2023-03-01T11:51:54.983Z,12.64
2023-03-01T11:54:32.161Z,12.78
2023-03-01T11:57:31.271Z,12.96
2023-03-01T12:00:41.729Z,13.08
2023-03-01T12:03:26.378Z,13.21
2023-03-01T12:06:07.049Z,13.25
2023-03-01T12:08:41.336Z,13.26
2023-03-01T12:11:30.328Z,13.28
2023-03-01T12:14:07.816Z,13.31
2023-03-01T12:16:48.787Z,13.36
2023-03-01T12:19:36.811Z,13.44
2023-03-01T12:22:23.837Z,13.55
2023-03-01T12:25:22.335Z,13.70
2023-03-01T12:28:02.374Z,13.80
2023-03-01T12:30:49.081Z,13.84
2023-03-01T12:33:41.830Z,13.85
2023-03-01T12:36:54.036Z,13.90
2023-03-01T12:39:28.552Z,13.94
2023-03-01T12:42:02.460Z,13.96
2023-03-01T12:45:06.680Z,13.96
2023-03-01T12:47:56.452Z,13.98
2023-03-01T12:50:29.524Z,13.97
2023-03-01T12:52:58.432Z,13.96
2023-03-01T12:55:44.278Z,13.92
2023-03-01T12:58:47.251Z,13.88
2023-03-01T13:01:58.696Z,13.80
2023-03-01T13:04:54.415Z,13.62
2023-03-01T13:07:30.980Z,13.58
2023-03-01T13:10:02.643Z,13.62
2023-03-01T13:12:54.153Z,13.52
2023-03-01T13:15:25.224Z,13.45
2023-03-01T13:17:54.388Z,13.44
2023-03-01T13:20:36.486Z,13.38
2023-03-01T13:23:10.695Z,13.42
2023-03-01T13:26:05.899Z,13.55
2023-03-01T13:28:47.243Z,13.78
2023-03-01T13:31:22.169Z,13.97
2023-03-01T13:33:53.660Z,14.08
2023-03-01T13:36:32.757Z,14.16
2023-03-01T13:39:06.392Z,14.17
2023-03-01T13:41:40.704Z,14.18
2023-03-01T13:44:28.045Z,14.23
2023-03-01T13:47:18.638Z,14.28
2023-03-01T13:50:00.560Z,14.28
2023-03-01T13:52:43.850Z,14.19
2023-03-01T13:55:14.813Z,14.27
2023-03-01T13:57:46.035Z,14.35
2023-03-01T14:00:34.796Z,14.43
2023-03-01T14:03:09.207Z,14.41
2023-03-01T14:05:38.404Z,14.28
2023-03-01T14:08:20.514Z,14.06
2023-03-01T14:11:01.062Z,13.88
2023-03-01T14:13:38.755Z,13.70
2023-03-01T14:16:44.335Z,13.72
2023-03-01T14:19:32.620Z,13.70
2023-03-01T14:22:14.234Z,13.78
2023-03-01T14:24:50.308Z,13.79
2023-03-01T14:27:19.279Z,13.81
2023-03-01T14:29:59.120Z,13.81
2023-03-01T14:32:32.580Z,13.84
2023-03-01T14:35:01.524Z,13.73
2023-03-01T14:37:35.517Z,13.52
2023-03-01T14:40:05.801Z,13.40
2023-03-01T14:42:36.685Z,13.32
2023-03-01T14:45:05.977Z,13.32
2023-03-01T14:47:36.505Z,13.37
2023-03-01T14:50:19.641Z,13.45
2023-03-01T14:52:49.958Z,13.52
2023-03-01T14:55:19.564Z,13.53
2023-03-01T14:57:52.240Z,13.56
2023-03-01T15:00:23.951Z,13.65
2023-03-01T15:02:54.127Z,13.66
2023-03-01T15:05:42.150Z,13.65
2023-03-01T15:08:21.181Z,13.62
2023-03-01T15:11:08.991Z,13.58
2023-03-01T15:13:37.489Z,13.53
2023-03-01T15:16:32.810Z,13.48
2023-03-01T15:19:07.234Z,13.41
2023-03-01T15:21:38.934Z,13.33
2023-03-01T15:24:21.889Z,13.23
2023-03-01T15:27:08.130Z,13.06
2023-03-01T15:29:41.671Z,12.80
2023-03-01T15:32:31.471Z,12.57
2023-03-01T15:35:01.072Z,12.31
2023-03-01T15:37:50.557Z,11.97
2023-03-01T15:40:32.597Z,11.48
2023-03-01T15:43:40.225Z,10.98
2023-03-01T15:46:28.583Z,10.48
2023-03-01T15:49:05.143Z,10.09
2023-03-01T15:51:38.024Z,9.77
2023-03-01T15:54:12.142Z,9.46
2023-03-01T15:56:40.411Z,9.15
2023-03-01T15:59:13.092Z,8.85
2023-03-01T16:01:42.285Z,8.57
2023-03-01T16:04:21.812Z,8.32
2023-03-01T16:06:57.553Z,8.05
2023-03-01T16:09:26.673Z,7.77
2023-03-01T16:11:55.566Z,7.50
2023-03-01T16:14:23.734Z,7.22
2023-03-01T16:16:52.224Z,6.95
2023-03-01T16:19:20.397Z,6.67
2023-03-01T16:21:49.784Z,6.39
2023-03-01T16:24:18.370Z,6.11
2023-03-01T16:26:46.857Z,5.86
2023-03-01T16:29:15.940Z,5.61
2023-03-01T16:31:44.239Z,5.36
2023-03-01T16:34:12.701Z,5.13
2023-03-01T16:36:42.274Z,4.91
2023-03-01T16:39:10.787Z,4.68
2023-03-01T16:41:38.848Z,4.47
2023-03-01T16:44:06.921Z,4.28
2023-03-01T16:46:35.073Z,4.09
2023-03-01T16:49:04.203Z,3.91
2023-03-01T16:51:33.922Z,3.71
2023-03-01T16:54:03.195Z,3.52
2023-03-01T16:56:34.156Z,3.32
2023-03-01T16:59:04.638Z,3.12
2023-03-01T17:01:36.130Z,2.92
2023-03-01T17:04:05.105Z,2.73
2023-03-01T17:06:33.677Z,2.56
2023-03-01T17:09:01.961Z,2.40
2023-03-01T17:11:30.371Z,2.25
2023-03-01T17:13:58.912Z,2.11
2023-03-01T17:16:28.007Z,1.98
2023-03-01T17:18:56.689Z,1.84
2023-03-01T17:21:25.167Z,1.72
2023-03-01T17:23:56.720Z,1.59
2023-03-01T17:26:25.404Z,1.48
2023-03-01T17:28:53.590Z,1.67
2023-03-01T17:31:22.829Z,3.16
2023-03-01T17:33:52.589Z,4.65
2023-03-01T17:36:20.766Z,5.66
2023-03-01T17:38:50.168Z,6.35
2023-03-01T17:41:19.359Z,6.73
2023-03-01T17:43:48.039Z,6.07
2023-03-01T17:46:17.142Z,5.26
2023-03-01T17:48:45.403Z,4.62
2023-03-01T17:51:13.579Z,4.09
2023-03-01T17:53:41.850Z,3.64
2023-03-01T17:56:10.328Z,3.23
2023-03-01T17:58:39.534Z,2.85
2023-03-01T18:01:17.478Z,2.53
2023-03-01T18:03:47.586Z,2.19
2023-03-01T18:06:36.507Z,1.90
2023-03-01T18:09:05.307Z,1.62
2023-03-01T18:11:35.489Z,1.40
2023-03-01T18:14:04.829Z,1.20
2023-03-01T18:16:34.511Z,1.03
2023-03-01T18:19:03.324Z,0.86
2023-03-01T18:21:31.850Z,0.71
2023-03-01T18:24:00.574Z,0.84
2023-03-01T18:26:30.025Z,2.23
2023-03-01T18:29:01.360Z,3.77
2023-03-01T18:31:33.532Z,4.84
2023-03-01T18:34:02.198Z,5.60
2023-03-01T18:36:33.174Z,5.98
2023-03-01T18:39:03.775Z,5.32
2023-03-01T18:41:33.282Z,4.47
2023-03-01T18:44:02.844Z,3.81
2023-03-01T18:46:31.635Z,3.28
2023-03-01T18:49:00.222Z,2.83
2023-03-01T18:51:30.440Z,2.40
2023-03-01T18:53:59.117Z,2.01
2023-03-01T18:56:30.035Z,1.64
2023-03-01T18:58:59.632Z,1.30
2023-03-01T19:01:29.672Z,1.01
2023-03-01T19:03:58.469Z,0.72
2023-03-01T19:06:34.581Z,0.52
2023-03-01T19:09:03.929Z,0.33
2023-03-01T19:11:33.824Z,0.16
2023-03-01T19:14:03.451Z,-0.01
2023-03-01T19:16:33.517Z,0.12
2023-03-01T19:19:04.595Z,1.51
2023-03-01T19:21:34.264Z,2.85
2023-03-01T19:24:02.817Z,3.78
2023-03-01T19:26:32.105Z,4.52
2023-03-01T19:29:01.085Z,4.96
2023-03-01T19:31:31.073Z,4.40
2023-03-01T19:34:11.127Z,3.64
2023-03-01T19:36:42.931Z,2.98
2023-03-01T19:39:13.812Z,2.45
2023-03-01T19:41:43.494Z,2.00
2023-03-01T19:44:12.757Z,1.60
2023-03-01T19:46:41.090Z,1.24
2023-03-01T19:49:10.008Z,0.94
2023-03-01T19:51:39.619Z,0.65
2023-03-01T19:54:10.014Z,0.42
2023-03-01T19:56:39.341Z,0.20
2023-03-01T19:59:07.935Z,-0.01
2023-03-01T20:01:37.913Z,0.04
2023-03-01T20:04:06.815Z,1.32
2023-03-01T20:06:36.522Z,2.57
2023-03-01T20:09:19.111Z,3.56
2023-03-01T20:11:49.909Z,4.38
2023-03-01T20:14:18.763Z,5.04
2023-03-01T20:16:47.031Z,5.39
2023-03-01T20:19:15.427Z,4.67
2023-03-01T20:21:43.783Z,3.79
2023-03-01T20:24:12.063Z,3.09
2023-03-01T20:26:41.358Z,2.51
2023-03-01T20:29:09.941Z,2.00
2023-03-01T20:31:39.976Z,1.55
2023-03-01T20:34:08.536Z,1.14
2023-03-01T20:36:39.004Z,0.77
2023-03-01T20:39:07.955Z,0.43
2023-03-01T20:41:36.125Z,0.12
2023-03-01T20:44:06.780Z,-0.16
2023-03-01T20:46:36.298Z,-0.10
2023-03-01T20:49:05.889Z,1.38
2023-03-01T20:51:34.138Z,2.82
2023-03-01T20:54:02.724Z,3.83
2023-03-01T20:56:31.341Z,4.60
2023-03-01T20:59:08.561Z,5.24
2023-03-01T21:01:38.401Z,5.51
2023-03-01T21:04:07.087Z,4.68
2023-03-01T21:06:35.751Z,3.75
2023-03-01T21:09:04.346Z,3.00
2023-03-01T21:11:32.522Z,2.40
2023-03-01T21:14:01.005Z,1.86
2023-03-01T21:16:29.399Z,1.39
2023-03-01T21:19:01.750Z,0.96
2023-03-01T21:21:29.922Z,0.55
2023-03-01T21:23:58.098Z,0.20
2023-03-01T21:26:27.596Z,-0.12
2023-03-01T21:29:02.811Z,-0.41
2023-03-01T21:31:34.986Z,-0.31
2023-03-01T21:34:06.093Z,1.22
2023-03-01T21:36:36.247Z,2.72
2023-03-01T21:39:06.088Z,3.79
2023-03-01T21:41:36.849Z,4.59
2023-03-01T21:44:07.403Z,5.27
2023-03-01T21:46:38.384Z,5.60
2023-03-01T21:49:07.791Z,5.79
2023-03-01T21:51:36.788Z,4.94
2023-03-01T21:54:05.922Z,3.97
2023-03-01T21:56:39.181Z,3.19
2023-03-01T21:59:09.354Z,2.53
2023-03-01T22:01:37.541Z,1.99
2023-03-01T22:04:06.017Z,1.49
2023-03-01T22:06:40.682Z,1.04
2023-03-01T22:09:09.437Z,0.60
2023-03-01T22:11:39.752Z,0.22
2023-03-01T22:14:08.431Z,-0.13
2023-03-01T22:16:37.968Z,-0.44
2023-03-01T22:19:07.643Z,-0.70
2023-03-01T22:21:39.416Z,-0.68
2023-03-01T22:24:08.815Z,0.62
2023-03-01T22:26:40.477Z,1.90
2023-03-01T22:29:14.045Z,2.74
2023-03-01T22:31:42.865Z,3.36
2023-03-01T22:34:11.734Z,3.90
2023-03-01T22:36:40.027Z,4.15
2023-03-01T22:39:08.392Z,3.48
2023-03-01T22:41:43.395Z,2.65
2023-03-01T22:44:12.697Z,1.95
2023-03-01T22:46:41.720Z,1.42
2023-03-01T22:49:10.410Z,0.97
2023-03-01T22:51:40.415Z,0.56
2023-03-01T22:54:09.820Z,0.19
2023-03-01T22:56:40.060Z,-0.16
2023-03-01T22:59:10.715Z,-0.49
2023-03-01T23:01:39.657Z,-0.77
2023-03-01T23:04:08.563Z,-1.03
2023-03-01T23:06:50.394Z,-1.26
2023-03-01T23:09:21.177Z,-1.13
2023-03-01T23:11:50.781Z,0.17
2023-03-01T23:14:19.867Z,1.42
2023-03-01T23:16:49.433Z,2.34
2023-03-01T23:19:18.262Z,3.03
2023-03-01T23:21:50.319Z,3.61
2023-03-01T23:24:20.649Z,4.18
2023-03-01T23:26:59.160Z,4.46
2023-03-01T23:29:27.434Z,3.64
2023-03-01T23:31:57.752Z,2.74
2023-03-01T23:34:26.670Z,2.01
2023-03-01T23:36:55.634Z,1.49
2023-03-01T23:39:23.715Z,1.06
2023-03-01T23:41:51.983Z,0.65
2023-03-01T23:44:21.088Z,0.26
2023-03-01T23:46:50.164Z,-0.11
2023-03-01T23:49:20.569Z,-0.44
2023-03-01T23:51:49.074Z,-0.74
2023-03-01T23:54:19.612Z,-1.01
2023-03-01T23:56:47.975Z,-1.01
2023-03-01T23:59:19.088Z,0.42
